CDT,Max TemperatureF,Mean TemperatureF,Min TemperatureF,Max Dew PointF,MeanDew PointF,Min DewpointF,Max Humidity, Mean Humidity, Min Humidity, Max Sea Level PressureIn, Mean Sea Level PressureIn, Min Sea Level PressureIn, Max VisibilityMiles, Mean VisibilityMiles, Min VisibilityMiles, Max Wind SpeedMPH, Mean Wind SpeedMPH, Max Gust SpeedMPH,PrecipitationIn, CloudCover, Events, WindDirDegrees
2013-5-1,82,64,46,58,51,39,80,54,35,30.21,30.09,29.96,10,10,5,20,10,25,0.00,0,,176
2013-5-2,51,46,42,40,37,35,81,72,62,30.28,30.24,30.19,10,10,6,26,21,36,0.02,5,Rain,9
2013-5-3,46,42,39,40,38,35,87,81,76,30.19,30.09,30.03,10,10,10,21,17,30,0.03,8,Rain,12
2013-5-4,64,54,45,46,42,40,83,68,54,30.07,30.05,30.01,10,10,10,10,9,,0.03,1,,14
2013-5-5,63,54,46,43,40,36,77,60,44,30.09,30.06,30.04,10,10,10,13,6,,0.00,0,,12
2013-5-6,68,57,48,43,38,35,69,52,34,30.09,30.05,30.01,10,10,10,14,7,,0.00,1,,7
2013-5-7,71,60,48,47,40,35,68,49,37,30.09,30.05,30.02,10,10,10,12,6,,0.00,0,,8
2013-5-8,75,60,46,47,41,39,77,49,32,30.06,30.03,29.99,10,10,10,12,3,,0.00,0,,151
2013-5-9,66,56,44,51,43,40,89,68,44,29.98,29.96,29.92,10,9,2,18,6,25,0.14,5,Rain,30
2013-5-10,46,44,42,40,38,37,86,80,74,30.01,29.92,29.83,10,7,2,28,19,39,0.47,8,Rain,358
2013-5-11,57,50,42,48,39,25,93,71,33,30.03,29.91,29.81,10,6,0,24,8,38,0.00,6,Fog-Rain,244
2013-5-12,54,46,39,33,28,25,70,52,35,30.14,30.10,30.04,10,10,10,14,10,22,0.00,4,,311
2013-5-13,52,43,34,34,32,29,85,59,43,30.22,30.15,30.01,10,10,10,16,7,,0.00,2,,129
2013-5-14,80,66,52,55,47,33,66,53,39,29.97,29.76,29.58,10,10,10,14,10,22,0.00,1,,183
2013-5-15,80,68,55,57,50,45,77,48,35,29.86,29.76,29.57,10,10,10,15,9,23,0.00,0,,255
2013-5-16,77,66,53,50,43,35,70,49,31,30.01,29.94,29.84,10,10,10,12,6,,0.00,0,,5
2013-5-17,63,56,51,46,43,39,74,62,46,30.13,30.07,30.00,10,10,10,14,8,22,0.01,5,,44
2013-5-18,71,59,50,54,46,43,80,65,47,30.11,30.07,30.00,10,10,9,9,4,,0.00,3,,100
2013-5-19,80,67,54,63,55,48,83,69,56,29.99,29.91,29.78,9,8,4,12,3,,0.00,0,,144
2013-5-20,90,76,63,65,58,53,84,56,29,29.79,29.74,29.70,10,8,2,17,10,34,0.14,1,Rain-Thunderstorm,191
2013-5-21,84,73,64,64,60,54,88,68,38,29.75,29.69,29.65,10,9,3,16,10,26,0.10,3,Rain-Thunderstorm,204
2013-5-22,69,60,51,63,55,48,94,86,63,29.79,29.69,29.64,10,6,0,16,6,21,0.72,8,Fog-Rain-Thunderstorm,39
2013-5-23,54,49,44,50,42,33,88,75,58,30.34,30.04,29.79,10,8,2,26,19,45,0.10,6,Rain,10
2013-5-24,55,48,42,37,34,31,73,59,49,30.48,30.41,30.34,10,10,10,14,10,23,0.00,0,,21
2013-5-25,59,50,42,42,38,33,82,62,46,30.44,30.38,30.34,10,10,10,9,3,,0.00,2,,36
2013-5-26,63,51,39,45,41,34,79,64,48,30.33,30.28,30.19,10,10,10,9,4,,0.00,3,Rain,69
2013-5-27,57,53,51,49,47,40,89,82,55,30.17,30.05,29.93,10,4,1,16,9,25,0.10,8,Rain,109
2013-5-28,73,62,51,66,56,48,90,84,70,29.93,29.81,29.71,10,4,0,9,5,,0.92,7,Fog-Rain-Thunderstorm,107
2013-5-29,78,66,55,64,57,52,94,81,54,29.95,29.89,29.79,10,5,0,15,3,,0.01,4,Fog-Rain,157
2013-5-30,84,74,63,70,62,57,83,71,55,29.92,29.87,29.79,10,10,5,16,7,24,0.13,2,Rain-Thunderstorm,176
2013-5-31,82,72,62,66,61,58,94,78,52,29.86,29.81,29.73,10,7,0,16,7,28,0.21,5,Fog-Rain,181